createdAt,value
2023-03-23T15:57:56.107Z,0.17
2023-03-23T16:00:25.956Z,0.10
2023-03-23T16:03:01.928Z,0.50
2023-03-23T16:05:28.776Z,0.10
2023-03-23T16:07:55.705Z,0.20
2023-03-23T16:10:25.233Z,0.40
2023-03-23T16:12:52.478Z,0.20
2023-03-23T16:15:19.607Z,0.40
2023-03-23T16:17:50.209Z,0.60
2023-03-23T16:20:20.069Z,0.30
2023-03-23T16:22:47.360Z,0.43
2023-03-23T16:25:15.237Z,0.20
2023-03-23T16:27:42.619Z,0.50
2023-03-23T16:30:17.943Z,0.93
2023-03-23T16:32:45.027Z,0.77
2023-03-23T16:35:11.589Z,0.28
2023-03-23T16:37:38.642Z,0.30
2023-03-23T16:40:09.529Z,0.20
2023-03-23T16:42:36.055Z,0.10
2023-03-23T16:45:02.579Z,0.13
2023-03-23T16:47:29.186Z,0.30
2023-03-23T16:49:55.771Z,0.30
2023-03-23T16:52:22.549Z,0.22
2023-03-23T16:54:49.470Z,0.60
2023-03-23T16:57:16.567Z,0.25
2023-03-23T16:59:43.814Z,0.13
2023-03-23T17:02:11.764Z,0.50
2023-03-23T17:04:43.257Z,0.30
2023-03-23T17:07:10.005Z,0.38
2023-03-23T17:09:36.488Z,0.20
2023-03-23T17:12:06.410Z,0.28
2023-03-23T17:14:33.246Z,0.10
2023-03-23T17:17:00.237Z,0.40
2023-03-23T17:19:26.948Z,0.20
2023-03-23T17:21:53.580Z,0.32
2023-03-23T17:24:21.582Z,0.32
2023-03-23T17:26:48.297Z,0.52
2023-03-23T17:29:14.821Z,0.40
2023-03-23T17:31:41.741Z,0.20
2023-03-23T17:34:08.574Z,0.40
2023-03-23T17:36:35.529Z,0.28
2023-03-23T17:39:02.473Z,0.13
2023-03-23T17:41:29.035Z,0.25
2023-03-23T17:43:55.613Z,0.22
2023-03-23T17:46:22.140Z,0.20
2023-03-23T17:48:48.814Z,0.15
2023-03-23T17:51:15.385Z,0.32
2023-03-23T17:53:41.828Z,0.77
2023-03-23T17:56:08.787Z,0.52
2023-03-23T17:58:35.494Z,0.22
2023-03-23T18:01:04.378Z,0.40
2023-03-23T18:03:31.316Z,0.38
2023-03-23T18:06:04.041Z,0.45
2023-03-23T18:08:30.892Z,0.38
2023-03-23T18:10:58.157Z,0.20
2023-03-23T18:13:28.900Z,0.40
2023-03-23T18:15:59.017Z,0.32
2023-03-23T18:18:28.294Z,0.45
2023-03-23T18:21:00.997Z,0.22
2023-03-23T18:23:29.230Z,0.38
2023-03-23T18:25:55.813Z,0.17
2023-03-23T18:28:23.124Z,0.30
2023-03-23T18:30:49.710Z,0.20
2023-03-23T18:33:19.061Z,0.40
2023-03-23T18:35:47.095Z,0.43
2023-03-23T18:38:14.461Z,0.20
2023-03-23T18:40:45.919Z,0.10
2023-03-23T18:43:13.487Z,0.40
2023-03-23T18:45:40.200Z,0.50
2023-03-23T18:48:07.432Z,0.20
2023-03-23T18:50:33.941Z,0.40
2023-03-23T18:53:00.756Z,0.40
2023-03-23T18:55:27.315Z,0.45
2023-03-23T18:57:53.812Z,0.43
2023-03-23T19:00:21.548Z,0.20
2023-03-23T19:02:51.934Z,0.30
2023-03-23T19:05:19.081Z,0.73
2023-03-23T19:07:47.397Z,1.15
2023-03-23T19:10:13.976Z,0.93
2023-03-23T19:12:40.418Z,3.08
2023-03-23T19:15:07.707Z,6.20
2023-03-23T19:17:36.164Z,2.03
2023-03-23T19:20:02.968Z,1.33
2023-03-23T19:22:29.638Z,1.00
2023-03-23T19:24:56.127Z,1.10
2023-03-23T19:27:22.582Z,1.08
2023-03-23T19:29:49.633Z,0.40
2023-03-23T19:32:16.974Z,0.57
2023-03-23T19:34:43.712Z,0.90
2023-03-23T19:37:11.418Z,0.60
2023-03-23T19:39:38.539Z,1.25
2023-03-23T19:42:08.388Z,1.67
2023-03-23T19:44:35.181Z,1.00
2023-03-23T19:47:01.863Z,1.88
2023-03-23T19:49:28.629Z,1.10
2023-03-23T19:52:07.897Z,1.23
2023-03-23T19:54:37.372Z,0.95
2023-03-23T19:57:06.938Z,1.25
2023-03-23T19:59:34.000Z,0.93
2023-03-23T20:02:03.165Z,0.95
2023-03-23T20:04:29.892Z,0.73
2023-03-23T20:06:58.975Z,1.02
2023-03-23T20:09:28.759Z,1.05
2023-03-23T20:12:00.188Z,0.95
2023-03-23T20:14:29.394Z,0.70
2023-03-23T20:16:56.054Z,1.40
2023-03-23T20:19:22.624Z,7.53
2023-03-23T20:21:52.648Z,3.15
2023-03-23T20:24:20.070Z,3.65
2023-03-23T20:26:48.465Z,9.52
2023-03-23T20:29:15.021Z,8.40
2023-03-23T20:31:42.252Z,8.18
2023-03-23T20:34:12.871Z,4.90
2023-03-23T20:36:44.198Z,7.68
2023-03-23T20:39:14.108Z,13.88
2023-03-23T20:41:41.093Z,3.95
2023-03-23T20:44:13.350Z,1.98
2023-03-23T20:46:39.864Z,2.60
2023-03-23T20:49:08.802Z,1.15
2023-03-23T20:51:35.382Z,1.33
2023-03-23T20:54:03.089Z,0.80
2023-03-23T20:56:29.683Z,0.65
2023-03-23T20:58:56.263Z,2.22
2023-03-23T21:01:22.991Z,5.65
2023-03-23T21:03:55.042Z,1.60
2023-03-23T21:06:21.571Z,2.92
2023-03-23T21:08:48.471Z,0.77
2023-03-23T21:11:24.558Z,1.13
2023-03-23T21:13:51.371Z,0.73
2023-03-23T21:16:19.224Z,1.13
2023-03-23T21:18:47.284Z,1.20
2023-03-23T21:21:14.930Z,0.50
2023-03-23T21:23:51.945Z,1.38
2023-03-23T21:26:20.741Z,1.42
2023-03-23T21:28:51.226Z,0.40
2023-03-23T21:31:18.190Z,0.65
2023-03-23T21:33:44.883Z,0.50
2023-03-23T21:36:11.670Z,0.52
2023-03-23T21:38:39.769Z,0.38
2023-03-23T21:41:12.621Z,0.85
2023-03-23T21:43:40.755Z,0.98
2023-03-23T21:46:09.355Z,0.70
2023-03-23T21:48:38.486Z,0.50
2023-03-23T21:51:12.429Z,0.80
2023-03-23T21:53:39.258Z,0.90
2023-03-23T21:56:07.805Z,0.85
2023-03-23T21:58:34.435Z,0.55
2023-03-23T22:01:02.157Z,0.68
2023-03-23T22:03:33.124Z,0.65
2023-03-23T22:06:10.510Z,0.80
2023-03-23T22:08:40.334Z,0.95
2023-03-23T22:11:11.307Z,0.55
2023-03-23T22:13:39.241Z,0.55
2023-03-23T22:16:14.279Z,0.68
2023-03-23T22:18:43.137Z,0.77
2023-03-23T22:21:10.184Z,0.32
2023-03-23T22:23:36.782Z,0.50
2023-03-23T22:26:03.812Z,1.00
2023-03-23T22:28:31.043Z,0.50
2023-03-23T22:31:05.970Z,0.40
2023-03-23T22:33:33.556Z,0.50
2023-03-23T22:36:06.381Z,0.70
2023-03-23T22:38:34.578Z,0.50
2023-03-23T22:41:06.851Z,0.50
2023-03-23T22:43:35.574Z,0.30
2023-03-23T22:46:04.394Z,0.30
2023-03-23T22:48:31.507Z,0.50
2023-03-23T22:50:58.466Z,0.20
2023-03-23T22:53:25.838Z,1.17
2023-03-23T22:56:01.457Z,0.30
2023-03-23T22:58:28.800Z,0.63
2023-03-23T23:00:59.118Z,0.32
2023-03-23T23:03:26.839Z,0.30
2023-03-23T23:05:55.372Z,0.20
2023-03-23T23:08:23.083Z,0.35
2023-03-23T23:10:53.079Z,0.40
2023-03-23T23:13:20.537Z,0.40
2023-03-23T23:15:49.680Z,0.20
2023-03-23T23:18:16.267Z,0.30
2023-03-23T23:20:43.610Z,0.20
2023-03-23T23:23:10.789Z,0.28
2023-03-23T23:25:38.069Z,0.32
2023-03-23T23:28:06.051Z,0.32
2023-03-23T23:30:33.722Z,0.40
2023-03-23T23:33:00.631Z,0.75
2023-03-23T23:35:27.387Z,0.30
2023-03-23T23:37:54.201Z,0.22
2023-03-23T23:40:22.259Z,1.15
2023-03-23T23:42:50.718Z,0.70
2023-03-23T23:45:18.174Z,0.70
2023-03-23T23:47:46.541Z,0.28
2023-03-23T23:50:14.592Z,0.30
2023-03-23T23:52:42.549Z,0.45
2023-03-23T23:55:10.149Z,0.60
2023-03-23T23:57:38.364Z,0.30
